sensor_id;sensor_type;location;lat;lon;timestamp;P1;durP1;ratioP1;P2;durP2;ratioP2
69878;SDS011;57161;43.136;24.706;2023-10-13T00:02:01;7.40;;;4.40;;
69878;SDS011;57161;43.136;24.706;2023-10-13T00:04:30;8.93;;;4.53;;
69878;SDS011;57161;43.136;24.706;2023-10-13T00:06:57;5.47;;;4.32;;
69878;SDS011;57161;43.136;24.706;2023-10-13T00:09:24;6.75;;;4.68;;
69878;SDS011;57161;43.136;24.706;2023-10-13T00:11:54;7.22;;;4.75;;
69878;SDS011;57161;43.136;24.706;2023-10-13T00:14:21;7.07;;;4.43;;
69878;SDS011;57161;43.136;24.706;2023-10-13T00:16:47;4.97;;;4.18;;
69878;SDS011;57161;43.136;24.706;2023-10-13T00:19:48;5.75;;;4.63;;
69878;SDS011;57161;43.136;24.706;2023-10-13T00:22:17;6.30;;;4.20;;
69878;SDS011;57161;43.136;24.706;2023-10-13T00:24:47;7.70;;;4.80;;
69878;SDS011;57161;43.136;24.706;2023-10-13T00:27:16;6.47;;;4.30;;
69878;SDS011;57161;43.136;24.706;2023-10-13T00:32:45;8.43;;;4.25;;
69878;SDS011;57161;43.136;24.706;2023-10-13T00:35:16;7.78;;;4.40;;
69878;SDS011;57161;43.136;24.706;2023-10-13T00:37:54;7.57;;;4.25;;
69878;SDS011;57161;43.136;24.706;2023-10-13T00:40:22;8.77;;;4.05;;
69878;SDS011;57161;43.136;24.706;2023-10-13T00:42:57;8.30;;;4.35;;
69878;SDS011;57161;43.136;24.706;2023-10-13T00:45:43;5.55;;;4.57;;
69878;SDS011;57161;43.136;24.706;2023-10-13T00:48:10;8.80;;;4.50;;
69878;SDS011;57161;43.136;24.706;2023-10-13T00:50:38;5.53;;;4.32;;
69878;SDS011;57161;43.136;24.706;2023-10-13T00:53:04;7.32;;;4.68;;
69878;SDS011;57161;43.136;24.706;2023-10-13T00:55:29;7.50;;;4.20;;
69878;SDS011;57161;43.136;24.706;2023-10-13T00:57:58;5.32;;;4.43;;
69878;SDS011;57161;43.136;24.706;2023-10-13T01:00:28;6.70;;;4.10;;
69878;SDS011;57161;43.136;24.706;2023-10-13T01:02:54;5.55;;;4.00;;
69878;SDS011;57161;43.136;24.706;2023-10-13T01:05:30;7.53;;;4.25;;
69878;SDS011;57161;43.136;24.706;2023-10-13T01:07:59;5.68;;;3.78;;
69878;SDS011;57161;43.136;24.706;2023-10-13T01:10:26;6.35;;;4.30;;
69878;SDS011;57161;43.136;24.706;2023-10-13T01:12:53;5.72;;;3.80;;
69878;SDS011;57161;43.136;24.706;2023-10-13T01:15:20;10.45;;;4.55;;
69878;SDS011;57161;43.136;24.706;2023-10-13T01:17:54;4.70;;;3.70;;
69878;SDS011;57161;43.136;24.706;2023-10-13T01:20:34;10.57;;;4.43;;
69878;SDS011;57161;43.136;24.706;2023-10-13T01:23:10;6.55;;;4.32;;
69878;SDS011;57161;43.136;24.706;2023-10-13T01:25:43;6.10;;;4.40;;
69878;SDS011;57161;43.136;24.706;2023-10-13T01:28:10;7.55;;;4.28;;
69878;SDS011;57161;43.136;24.706;2023-10-13T01:30:36;8.15;;;4.32;;
69878;SDS011;57161;43.136;24.706;2023-10-13T01:33:04;7.28;;;4.13;;
69878;SDS011;57161;43.136;24.706;2023-10-13T01:35:29;9.00;;;4.47;;
69878;SDS011;57161;43.136;24.706;2023-10-13T01:38:02;7.88;;;4.40;;
69878;SDS011;57161;43.136;24.706;2023-10-13T01:40:28;5.35;;;4.40;;
69878;SDS011;57161;43.136;24.706;2023-10-13T01:42:58;8.23;;;4.53;;
69878;SDS011;57161;43.136;24.706;2023-10-13T01:45:24;8.10;;;4.50;;
69878;SDS011;57161;43.136;24.706;2023-10-13T01:47:54;6.00;;;3.70;;
69878;SDS011;57161;43.136;24.706;2023-10-13T01:50:22;6.18;;;4.15;;
69878;SDS011;57161;43.136;24.706;2023-10-13T01:52:55;4.93;;;3.97;;
69878;SDS011;57161;43.136;24.706;2023-10-13T01:55:37;6.30;;;4.63;;
69878;SDS011;57161;43.136;24.706;2023-10-13T01:58:10;5.07;;;4.13;;
69878;SDS011;57161;43.136;24.706;2023-10-13T02:00:48;5.60;;;4.00;;
69878;SDS011;57161;43.136;24.706;2023-10-13T02:03:14;8.57;;;4.07;;
69878;SDS011;57161;43.136;24.706;2023-10-13T02:05:45;5.72;;;3.80;;
69878;SDS011;57161;43.136;24.706;2023-10-13T02:10:48;7.00;;;4.07;;
69878;SDS011;57161;43.136;24.706;2023-10-13T02:13:17;6.32;;;4.07;;
69878;SDS011;57161;43.136;24.706;2023-10-13T02:15:47;4.88;;;4.10;;
69878;SDS011;57161;43.136;24.706;2023-10-13T02:18:14;8.35;;;4.65;;
69878;SDS011;57161;43.136;24.706;2023-10-13T02:21:04;4.60;;;4.05;;
69878;SDS011;57161;43.136;24.706;2023-10-13T02:23:30;6.95;;;4.10;;
69878;SDS011;57161;43.136;24.706;2023-10-13T02:25:56;5.95;;;4.05;;
69878;SDS011;57161;43.136;24.706;2023-10-13T02:28:35;6.82;;;4.30;;
69878;SDS011;57161;43.136;24.706;2023-10-13T02:31:04;10.02;;;4.65;;
69878;SDS011;57161;43.136;24.706;2023-10-13T02:33:31;6.13;;;3.92;;
69878;SDS011;57161;43.136;24.706;2023-10-13T02:36:01;4.22;;;3.83;;
69878;SDS011;57161;43.136;24.706;2023-10-13T02:38:30;5.25;;;3.90;;
69878;SDS011;57161;43.136;24.706;2023-10-13T02:41:13;6.95;;;3.95;;
69878;SDS011;57161;43.136;24.706;2023-10-13T02:43:51;9.05;;;4.40;;
69878;SDS011;57161;43.136;24.706;2023-10-13T02:46:20;7.90;;;4.30;;
69878;SDS011;57161;43.136;24.706;2023-10-13T02:48:55;5.88;;;4.43;;
69878;SDS011;57161;43.136;24.706;2023-10-13T02:51:24;6.30;;;4.00;;
69878;SDS011;57161;43.136;24.706;2023-10-13T02:54:07;5.10;;;4.07;;
69878;SDS011;57161;43.136;24.706;2023-10-13T02:56:45;7.63;;;4.07;;
69878;SDS011;57161;43.136;24.706;2023-10-13T02:59:30;6.53;;;4.07;;
69878;SDS011;57161;43.136;24.706;2023-10-13T03:02:04;4.30;;;3.90;;
69878;SDS011;57161;43.136;24.706;2023-10-13T03:04:46;5.97;;;3.97;;
69878;SDS011;57161;43.136;24.706;2023-10-13T03:07:15;5.35;;;4.45;;
69878;SDS011;57161;43.136;24.706;2023-10-13T03:09:43;4.93;;;4.30;;
69878;SDS011;57161;43.136;24.706;2023-10-13T03:12:15;6.75;;;4.47;;
69878;SDS011;57161;43.136;24.706;2023-10-13T03:14:42;5.00;;;4.07;;
69878;SDS011;57161;43.136;24.706;2023-10-13T03:17:12;6.77;;;4.47;;
69878;SDS011;57161;43.136;24.706;2023-10-13T03:19:47;5.53;;;4.28;;
69878;SDS011;57161;43.136;24.706;2023-10-13T03:22:17;7.57;;;4.28;;
69878;SDS011;57161;43.136;24.706;2023-10-13T03:24:43;6.68;;;4.63;;
69878;SDS011;57161;43.136;24.706;2023-10-13T03:27:16;5.80;;;4.75;;
69878;SDS011;57161;43.136;24.706;2023-10-13T03:29:44;8.82;;;4.38;;
69878;SDS011;57161;43.136;24.706;2023-10-13T03:32:13;7.70;;;4.80;;
69878;SDS011;57161;43.136;24.706;2023-10-13T03:34:44;5.22;;;4.22;;
69878;SDS011;57161;43.136;24.706;2023-10-13T03:37:26;7.55;;;4.45;;
69878;SDS011;57161;43.136;24.706;2023-10-13T03:42:45;5.65;;;4.70;;
69878;SDS011;57161;43.136;24.706;2023-10-13T03:45:36;8.27;;;4.22;;
69878;SDS011;57161;43.136;24.706;2023-10-13T03:48:12;5.47;;;4.65;;
69878;SDS011;57161;43.136;24.706;2023-10-13T03:50:48;5.93;;;4.82;;
69878;SDS011;57161;43.136;24.706;2023-10-13T03:53:26;7.00;;;4.63;;
69878;SDS011;57161;43.136;24.706;2023-10-13T03:55:56;7.55;;;4.65;;
69878;SDS011;57161;43.136;24.706;2023-10-13T03:58:37;6.00;;;4.68;;
69878;SDS011;57161;43.136;24.706;2023-10-13T04:01:13;5.90;;;4.38;;
69878;SDS011;57161;43.136;24.706;2023-10-13T04:03:42;8.30;;;4.40;;
69878;SDS011;57161;43.136;24.706;2023-10-13T04:06:28;7.05;;;4.28;;
69878;SDS011;57161;43.136;24.706;2023-10-13T04:09:18;8.40;;;4.50;;
69878;SDS011;57161;43.136;24.706;2023-10-13T04:11:57;5.68;;;4.40;;
69878;SDS011;57161;43.136;24.706;2023-10-13T04:14:34;6.82;;;4.35;;
69878;SDS011;57161;43.136;24.706;2023-10-13T04:17:22;7.93;;;4.80;;
69878;SDS011;57161;43.136;24.706;2023-10-13T04:19:51;5.60;;;4.53;;
69878;SDS011;57161;43.136;24.706;2023-10-13T04:22:41;9.38;;;4.80;;
69878;SDS011;57161;43.136;24.706;2023-10-13T04:25:14;5.30;;;4.25;;
69878;SDS011;57161;43.136;24.706;2023-10-13T04:28:06;7.28;;;5.03;;
69878;SDS011;57161;43.136;24.706;2023-10-13T04:30:59;5.97;;;4.70;;
69878;SDS011;57161;43.136;24.706;2023-10-13T04:33:37;5.80;;;4.43;;
69878;SDS011;57161;43.136;24.706;2023-10-13T04:36:21;7.18;;;4.43;;
69878;SDS011;57161;43.136;24.706;2023-10-13T04:38:53;9.63;;;4.60;;
69878;SDS011;57161;43.136;24.706;2023-10-13T04:41:30;6.15;;;4.40;;
69878;SDS011;57161;43.136;24.706;2023-10-13T04:44:04;6.22;;;4.45;;
69878;SDS011;57161;43.136;24.706;2023-10-13T04:46:55;9.23;;;4.90;;
69878;SDS011;57161;43.136;24.706;2023-10-13T04:49:24;8.95;;;4.60;;
69878;SDS011;57161;43.136;24.706;2023-10-13T04:52:00;6.32;;;4.60;;
69878;SDS011;57161;43.136;24.706;2023-10-13T04:54:33;7.40;;;5.15;;
69878;SDS011;57161;43.136;24.706;2023-10-13T04:57:10;13.02;;;4.82;;
69878;SDS011;57161;43.136;24.706;2023-10-13T04:59:48;7.13;;;4.65;;
69878;SDS011;57161;43.136;24.706;2023-10-13T05:02:33;5.88;;;4.00;;
69878;SDS011;57161;43.136;24.706;2023-10-13T05:05:07;11.88;;;4.68;;
69878;SDS011;57161;43.136;24.706;2023-10-13T05:07:43;9.43;;;5.30;;
69878;SDS011;57161;43.136;24.706;2023-10-13T05:10:28;7.72;;;4.65;;
69878;SDS011;57161;43.136;24.706;2023-10-13T05:13:13;9.98;;;4.63;;
69878;SDS011;57161;43.136;24.706;2023-10-13T05:15:57;6.07;;;4.45;;
69878;SDS011;57161;43.136;24.706;2023-10-13T05:18:41;6.78;;;4.30;;
69878;SDS011;57161;43.136;24.706;2023-10-13T05:21:25;9.18;;;5.15;;
69878;SDS011;57161;43.136;24.706;2023-10-13T05:24:10;6.53;;;4.70;;
69878;SDS011;57161;43.136;24.706;2023-10-13T05:26:54;10.73;;;4.38;;
69878;SDS011;57161;43.136;24.706;2023-10-13T05:29:38;5.93;;;4.28;;
69878;SDS011;57161;43.136;24.706;2023-10-13T05:32:23;6.38;;;4.40;;
69878;SDS011;57161;43.136;24.706;2023-10-13T05:35:08;9.70;;;4.82;;
69878;SDS011;57161;43.136;24.706;2023-10-13T05:37:52;6.45;;;4.28;;
69878;SDS011;57161;43.136;24.706;2023-10-13T05:40:36;8.13;;;4.70;;
69878;SDS011;57161;43.136;24.706;2023-10-13T05:43:20;6.07;;;4.38;;
69878;SDS011;57161;43.136;24.706;2023-10-13T05:46:04;10.75;;;4.50;;
69878;SDS011;57161;43.136;24.706;2023-10-13T05:48:56;4.50;;;4.03;;
69878;SDS011;57161;43.136;24.706;2023-10-13T05:51:25;6.15;;;4.18;;
69878;SDS011;57161;43.136;24.706;2023-10-13T05:54:00;8.18;;;4.18;;
69878;SDS011;57161;43.136;24.706;2023-10-13T05:56:53;6.15;;;3.78;;
69878;SDS011;57161;43.136;24.706;2023-10-13T05:59:37;6.20;;;4.45;;
69878;SDS011;57161;43.136;24.706;2023-10-13T06:02:22;6.68;;;4.40;;
69878;SDS011;57161;43.136;24.706;2023-10-13T06:05:07;10.90;;;4.22;;
69878;SDS011;57161;43.136;24.706;2023-10-13T06:07:52;5.78;;;4.10;;
69878;SDS011;57161;43.136;24.706;2023-10-13T06:10:37;6.72;;;4.18;;
69878;SDS011;57161;43.136;24.706;2023-10-13T06:13:22;5.80;;;4.13;;
69878;SDS011;57161;43.136;24.706;2023-10-13T06:16:09;7.75;;;4.60;;
69878;SDS011;57161;43.136;24.706;2023-10-13T06:18:55;5.47;;;4.22;;
69878;SDS011;57161;43.136;24.706;2023-10-13T06:21:39;6.70;;;4.13;;
69878;SDS011;57161;43.136;24.706;2023-10-13T06:24:24;10.20;;;4.13;;
69878;SDS011;57161;43.136;24.706;2023-10-13T06:27:08;11.05;;;4.30;;
69878;SDS011;57161;43.136;24.706;2023-10-13T06:29:53;10.35;;;4.43;;
69878;SDS011;57161;43.136;24.706;2023-10-13T06:32:19;5.85;;;4.28;;
69878;SDS011;57161;43.136;24.706;2023-10-13T06:34:45;10.80;;;4.05;;
69878;SDS011;57161;43.136;24.706;2023-10-13T06:37:14;10.20;;;4.53;;
69878;SDS011;57161;43.136;24.706;2023-10-13T06:39:50;6.13;;;3.78;;
69878;SDS011;57161;43.136;24.706;2023-10-13T06:42:16;8.35;;;4.45;;
69878;SDS011;57161;43.136;24.706;2023-10-13T06:44:44;10.27;;;4.38;;
69878;SDS011;57161;43.136;24.706;2023-10-13T06:47:13;9.65;;;4.45;;
69878;SDS011;57161;43.136;24.706;2023-10-13T06:49:39;5.22;;;4.10;;
69878;SDS011;57161;43.136;24.706;2023-10-13T06:52:08;6.38;;;4.15;;
69878;SDS011;57161;43.136;24.706;2023-10-13T06:54:34;5.68;;;4.47;;
69878;SDS011;57161;43.136;24.706;2023-10-13T06:57:00;5.53;;;4.20;;
69878;SDS011;57161;43.136;24.706;2023-10-13T06:59:29;6.32;;;4.20;;
69878;SDS011;57161;43.136;24.706;2023-10-13T07:01:58;8.27;;;4.50;;
69878;SDS011;57161;43.136;24.706;2023-10-13T07:04:28;8.93;;;4.03;;
69878;SDS011;57161;43.136;24.706;2023-10-13T07:06:53;11.05;;;4.03;;
69878;SDS011;57161;43.136;24.706;2023-10-13T07:09:19;9.20;;;3.90;;
69878;SDS011;57161;43.136;24.706;2023-10-13T07:12:00;8.83;;;4.27;;
69878;SDS011;57161;43.136;24.706;2023-10-13T07:14:27;7.35;;;4.30;;
69878;SDS011;57161;43.136;24.706;2023-10-13T07:16:56;6.38;;;4.10;;
69878;SDS011;57161;43.136;24.706;2023-10-13T07:19:27;6.55;;;4.05;;
69878;SDS011;57161;43.136;24.706;2023-10-13T07:21:56;13.82;;;4.43;;
69878;SDS011;57161;43.136;24.706;2023-10-13T07:24:47;6.55;;;4.00;;
69878;SDS011;57161;43.136;24.706;2023-10-13T07:27:21;6.13;;;3.97;;
69878;SDS011;57161;43.136;24.706;2023-10-13T07:32:36;9.35;;;4.00;;
69878;SDS011;57161;43.136;24.706;2023-10-13T07:35:02;6.70;;;3.63;;
69878;SDS011;57161;43.136;24.706;2023-10-13T07:37:36;9.35;;;4.13;;
69878;SDS011;57161;43.136;24.706;2023-10-13T07:40:07;6.72;;;3.90;;
69878;SDS011;57161;43.136;24.706;2023-10-13T07:42:53;11.50;;;4.00;;
69878;SDS011;57161;43.136;24.706;2023-10-13T07:45:36;10.75;;;3.97;;
69878;SDS011;57161;43.136;24.706;2023-10-13T07:48:02;13.43;;;3.95;;
69878;SDS011;57161;43.136;24.706;2023-10-13T07:50:43;10.10;;;4.25;;
69878;SDS011;57161;43.136;24.706;2023-10-13T07:53:11;7.95;;;3.85;;
69878;SDS011;57161;43.136;24.706;2023-10-13T07:55:49;6.15;;;3.70;;
69878;SDS011;57161;43.136;24.706;2023-10-13T07:58:25;12.00;;;3.80;;
69878;SDS011;57161;43.136;24.706;2023-10-13T08:00:51;10.77;;;3.80;;
69878;SDS011;57161;43.136;24.706;2023-10-13T08:03:23;5.43;;;3.60;;
69878;SDS011;57161;43.136;24.706;2023-10-13T08:06:07;5.13;;;3.08;;
69878;SDS011;57161;43.136;24.706;2023-10-13T08:08:36;8.98;;;3.70;;
69878;SDS011;57161;43.136;24.706;2023-10-13T08:11:05;7.40;;;3.25;;
69878;SDS011;57161;43.136;24.706;2023-10-13T08:13:37;5.38;;;3.33;;
69878;SDS011;57161;43.136;24.706;2023-10-13T08:16:14;7.88;;;3.75;;
69878;SDS011;57161;43.136;24.706;2023-10-13T08:18:51;8.38;;;3.65;;
69878;SDS011;57161;43.136;24.706;2023-10-13T08:21:20;6.40;;;3.58;;
69878;SDS011;57161;43.136;24.706;2023-10-13T08:23:50;12.10;;;3.75;;
69878;SDS011;57161;43.136;24.706;2023-10-13T08:26:19;6.57;;;3.47;;
69878;SDS011;57161;43.136;24.706;2023-10-13T08:28:55;9.63;;;3.67;;
69878;SDS011;57161;43.136;24.706;2023-10-13T08:31:21;13.23;;;4.40;;
69878;SDS011;57161;43.136;24.706;2023-10-13T08:33:50;6.07;;;3.60;;
69878;SDS011;57161;43.136;24.706;2023-10-13T08:36:23;5.97;;;4.03;;
69878;SDS011;57161;43.136;24.706;2023-10-13T08:38:56;6.28;;;3.88;;
69878;SDS011;57161;43.136;24.706;2023-10-13T08:41:22;7.20;;;3.42;;
69878;SDS011;57161;43.136;24.706;2023-10-13T08:43:48;6.70;;;3.72;;
69878;SDS011;57161;43.136;24.706;2023-10-13T08:46:15;7.85;;;3.92;;
69878;SDS011;57161;43.136;24.706;2023-10-13T08:49:04;8.85;;;3.50;;
69878;SDS011;57161;43.136;24.706;2023-10-13T08:51:44;8.38;;;3.72;;
69878;SDS011;57161;43.136;24.706;2023-10-13T08:54:14;9.83;;;4.53;;
69878;SDS011;57161;43.136;24.706;2023-10-13T08:56:59;7.47;;;3.90;;
69878;SDS011;57161;43.136;24.706;2023-10-13T08:59:44;6.88;;;3.60;;
69878;SDS011;57161;43.136;24.706;2023-10-13T09:02:19;6.45;;;3.60;;
69878;SDS011;57161;43.136;24.706;2023-10-13T09:05:07;5.25;;;3.22;;
69878;SDS011;57161;43.136;24.706;2023-10-13T09:07:43;5.97;;;3.10;;
69878;SDS011;57161;43.136;24.706;2023-10-13T09:10:12;4.57;;;2.95;;
69878;SDS011;57161;43.136;24.706;2023-10-13T09:13:10;9.15;;;3.35;;
69878;SDS011;57161;43.136;24.706;2023-10-13T09:15:43;5.85;;;3.03;;
69878;SDS011;57161;43.136;24.706;2023-10-13T09:18:27;8.10;;;3.20;;
69878;SDS011;57161;43.136;24.706;2023-10-13T09:21:11;5.25;;;2.78;;
69878;SDS011;57161;43.136;24.706;2023-10-13T09:23:58;6.75;;;3.10;;
69878;SDS011;57161;43.136;24.706;2023-10-13T09:26:41;7.35;;;5.20;;
69878;SDS011;57161;43.136;24.706;2023-10-13T09:29:19;5.93;;;3.15;;
69878;SDS011;57161;43.136;24.706;2023-10-13T09:31:46;5.30;;;3.03;;
69878;SDS011;57161;43.136;24.706;2023-10-13T09:34:22;7.47;;;3.10;;
69878;SDS011;57161;43.136;24.706;2023-10-13T09:36:55;6.57;;;3.30;;
69878;SDS011;57161;43.136;24.706;2023-10-13T09:39:26;7.35;;;3.00;;
69878;SDS011;57161;43.136;24.706;2023-10-13T09:41:56;7.03;;;3.20;;
69878;SDS011;57161;43.136;24.706;2023-10-13T09:44:22;6.45;;;3.13;;
69878;SDS011;57161;43.136;24.706;2023-10-13T09:46:48;6.40;;;3.28;;
69878;SDS011;57161;43.136;24.706;2023-10-13T09:49:14;8.60;;;3.10;;
69878;SDS011;57161;43.136;24.706;2023-10-13T09:52:02;8.23;;;3.45;;
69878;SDS011;57161;43.136;24.706;2023-10-13T09:54:36;5.28;;;3.15;;
69878;SDS011;57161;43.136;24.706;2023-10-13T09:57:17;6.97;;;3.40;;
69878;SDS011;57161;43.136;24.706;2023-10-13T09:59:50;9.88;;;3.97;;
69878;SDS011;57161;43.136;24.706;2023-10-13T10:02:21;6.72;;;3.15;;
69878;SDS011;57161;43.136;24.706;2023-10-13T10:04:54;6.10;;;3.13;;
69878;SDS011;57161;43.136;24.706;2023-10-13T10:07:40;5.30;;;3.15;;
69878;SDS011;57161;43.136;24.706;2023-10-13T10:10:20;6.22;;;3.20;;
69878;SDS011;57161;43.136;24.706;2023-10-13T10:12:52;8.95;;;3.08;;
69878;SDS011;57161;43.136;24.706;2023-10-13T10:15:34;9.50;;;3.47;;
69878;SDS011;57161;43.136;24.706;2023-10-13T10:18:21;3.90;;;2.80;;
69878;SDS011;57161;43.136;24.706;2023-10-13T10:20:49;12.88;;;3.58;;
69878;SDS011;57161;43.136;24.706;2023-10-13T10:23:28;6.47;;;3.55;;
69878;SDS011;57161;43.136;24.706;2023-10-13T10:26:08;7.47;;;3.42;;
69878;SDS011;57161;43.136;24.706;2023-10-13T10:28:39;8.65;;;3.22;;
69878;SDS011;57161;43.136;24.706;2023-10-13T10:31:07;5.55;;;3.08;;
69878;SDS011;57161;43.136;24.706;2023-10-13T10:33:44;5.90;;;2.95;;
69878;SDS011;57161;43.136;24.706;2023-10-13T10:36:11;6.05;;;3.40;;
69878;SDS011;57161;43.136;24.706;2023-10-13T10:38:56;8.27;;;2.75;;
69878;SDS011;57161;43.136;24.706;2023-10-13T10:41:26;8.30;;;3.20;;
69878;SDS011;57161;43.136;24.706;2023-10-13T10:44:12;5.75;;;3.78;;
69878;SDS011;57161;43.136;24.706;2023-10-13T10:46:42;5.43;;;2.60;;
69878;SDS011;57161;43.136;24.706;2023-10-13T10:49:20;9.48;;;2.95;;
69878;SDS011;57161;43.136;24.706;2023-10-13T10:51:52;4.00;;;2.75;;
69878;SDS011;57161;43.136;24.706;2023-10-13T10:54:26;5.80;;;3.03;;
69878;SDS011;57161;43.136;24.706;2023-10-13T10:56:56;3.78;;;2.83;;
69878;SDS011;57161;43.136;24.706;2023-10-13T10:59:24;6.13;;;2.55;;
69878;SDS011;57161;43.136;24.706;2023-10-13T11:01:54;8.02;;;2.78;;
69878;SDS011;57161;43.136;24.706;2023-10-13T11:04:20;6.28;;;2.97;;
69878;SDS011;57161;43.136;24.706;2023-10-13T11:06:56;11.63;;;3.20;;
69878;SDS011;57161;43.136;24.706;2023-10-13T11:15:03;7.93;;;3.17;;
69878;SDS011;57161;43.136;24.706;2023-10-13T11:17:37;8.27;;;3.20;;
69878;SDS011;57161;43.136;24.706;2023-10-13T11:20:29;11.57;;;3.33;;
69878;SDS011;57161;43.136;24.706;2023-10-13T11:23:13;8.13;;;3.33;;
69878;SDS011;57161;43.136;24.706;2023-10-13T11:25:39;9.82;;;3.17;;
69878;SDS011;57161;43.136;24.706;2023-10-13T11:30:43;6.95;;;2.72;;
69878;SDS011;57161;43.136;24.706;2023-10-13T11:33:14;6.60;;;2.92;;
69878;SDS011;57161;43.136;24.706;2023-10-13T11:35:44;5.65;;;2.75;;
69878;SDS011;57161;43.136;24.706;2023-10-13T11:38:19;10.50;;;3.53;;
69878;SDS011;57161;43.136;24.706;2023-10-13T11:40:55;8.88;;;3.03;;
69878;SDS011;57161;43.136;24.706;2023-10-13T11:43:33;6.43;;;2.58;;
69878;SDS011;57161;43.136;24.706;2023-10-13T11:46:09;6.38;;;2.80;;
69878;SDS011;57161;43.136;24.706;2023-10-13T11:48:36;8.18;;;2.70;;
69878;SDS011;57161;43.136;24.706;2023-10-13T11:51:02;7.03;;;2.80;;
69878;SDS011;57161;43.136;24.706;2023-10-13T11:53:32;8.63;;;3.23;;
69878;SDS011;57161;43.136;24.706;2023-10-13T11:56:04;13.77;;;3.25;;
69878;SDS011;57161;43.136;24.706;2023-10-13T11:58:36;5.82;;;2.60;;
69878;SDS011;57161;43.136;24.706;2023-10-13T12:01:02;7.72;;;2.80;;
69878;SDS011;57161;43.136;24.706;2023-10-13T12:03:47;8.50;;;2.88;;
69878;SDS011;57161;43.136;24.706;2023-10-13T12:06:33;4.65;;;2.40;;
69878;SDS011;57161;43.136;24.706;2023-10-13T12:09:03;6.25;;;3.20;;
69878;SDS011;57161;43.136;24.706;2023-10-13T12:11:45;7.80;;;3.28;;
69878;SDS011;57161;43.136;24.706;2023-10-13T12:14:12;6.88;;;3.42;;
69878;SDS011;57161;43.136;24.706;2023-10-13T12:16:55;9.68;;;3.35;;
69878;SDS011;57161;43.136;24.706;2023-10-13T12:19:21;11.70;;;4.47;;
69878;SDS011;57161;43.136;24.706;2023-10-13T12:21:51;13.95;;;5.20;;
69878;SDS011;57161;43.136;24.706;2023-10-13T12:24:23;8.73;;;4.75;;
69878;SDS011;57161;43.136;24.706;2023-10-13T12:27:02;10.02;;;4.43;;
69878;SDS011;57161;43.136;24.706;2023-10-13T12:29:27;10.88;;;4.57;;
69878;SDS011;57161;43.136;24.706;2023-10-13T12:31:57;9.30;;;4.43;;
69878;SDS011;57161;43.136;24.706;2023-10-13T12:34:37;15.80;;;4.50;;
69878;SDS011;57161;43.136;24.706;2023-10-13T12:37:21;19.77;;;4.03;;
69878;SDS011;57161;43.136;24.706;2023-10-13T12:40:05;7.72;;;3.45;;
69878;SDS011;57161;43.136;24.706;2023-10-13T12:42:51;10.90;;;4.22;;
69878;SDS011;57161;43.136;24.706;2023-10-13T12:45:42;7.10;;;4.28;;
69878;SDS011;57161;43.136;24.706;2023-10-13T12:48:27;11.20;;;4.20;;
69878;SDS011;57161;43.136;24.706;2023-10-13T12:51:11;12.90;;;3.70;;
69878;SDS011;57161;43.136;24.706;2023-10-13T12:54:05;14.02;;;3.70;;
69878;SDS011;57161;43.136;24.706;2023-10-13T12:56:39;9.50;;;3.10;;
69878;SDS011;57161;43.136;24.706;2023-10-13T12:59:10;10.95;;;3.40;;
69878;SDS011;57161;43.136;24.706;2023-10-13T13:01:39;13.30;;;3.60;;
69878;SDS011;57161;43.136;24.706;2023-10-13T13:04:11;7.07;;;2.85;;
69878;SDS011;57161;43.136;24.706;2023-10-13T13:06:43;10.57;;;3.08;;
69878;SDS011;57161;43.136;24.706;2023-10-13T13:09:09;16.85;;;3.40;;
69878;SDS011;57161;43.136;24.706;2023-10-13T13:11:35;8.90;;;2.70;;
69878;SDS011;57161;43.136;24.706;2023-10-13T13:14:13;10.02;;;2.80;;
69878;SDS011;57161;43.136;24.706;2023-10-13T13:16:39;12.07;;;2.90;;
69878;SDS011;57161;43.136;24.706;2023-10-13T13:19:05;10.20;;;3.08;;
69878;SDS011;57161;43.136;24.706;2023-10-13T13:21:39;11.85;;;3.05;;
69878;SDS011;57161;43.136;24.706;2023-10-13T13:24:05;5.95;;;2.90;;
69878;SDS011;57161;43.136;24.706;2023-10-13T13:26:39;8.45;;;3.15;;
69878;SDS011;57161;43.136;24.706;2023-10-13T13:29:07;10.05;;;3.20;;
69878;SDS011;57161;43.136;24.706;2023-10-13T13:31:36;6.22;;;2.75;;
69878;SDS011;57161;43.136;24.706;2023-10-13T13:34:06;10.30;;;3.17;;
69878;SDS011;57161;43.136;24.706;2023-10-13T13:36:34;11.77;;;3.05;;
69878;SDS011;57161;43.136;24.706;2023-10-13T13:39:00;9.32;;;2.95;;
69878;SDS011;57161;43.136;24.706;2023-10-13T13:41:26;10.60;;;3.17;;
69878;SDS011;57161;43.136;24.706;2023-10-13T13:43:52;18.52;;;4.28;;
69878;SDS011;57161;43.136;24.706;2023-10-13T13:46:22;14.60;;;3.50;;
69878;SDS011;57161;43.136;24.706;2023-10-13T13:48:50;12.60;;;3.50;;
69878;SDS011;57161;43.136;24.706;2023-10-13T13:51:23;7.47;;;3.45;;
69878;SDS011;57161;43.136;24.706;2023-10-13T13:53:52;10.80;;;3.17;;
69878;SDS011;57161;43.136;24.706;2023-10-13T13:56:19;7.80;;;3.35;;
69878;SDS011;57161;43.136;24.706;2023-10-13T13:58:47;8.25;;;3.10;;
69878;SDS011;57161;43.136;24.706;2023-10-13T14:01:15;10.88;;;3.33;;
69878;SDS011;57161;43.136;24.706;2023-10-13T14:03:43;9.82;;;3.70;;
69878;SDS011;57161;43.136;24.706;2023-10-13T14:06:13;12.80;;;3.50;;
69878;SDS011;57161;43.136;24.706;2023-10-13T14:08:44;14.93;;;3.60;;
69878;SDS011;57161;43.136;24.706;2023-10-13T14:11:13;13.38;;;4.07;;
69878;SDS011;57161;43.136;24.706;2023-10-13T14:13:47;15.07;;;4.63;;
69878;SDS011;57161;43.136;24.706;2023-10-13T14:16:22;11.30;;;4.35;;
69878;SDS011;57161;43.136;24.706;2023-10-13T14:18:50;23.13;;;5.70;;
69878;SDS011;57161;43.136;24.706;2023-10-13T14:21:17;10.88;;;4.53;;
69878;SDS011;57161;43.136;24.706;2023-10-13T14:23:49;12.18;;;5.28;;
69878;SDS011;57161;43.136;24.706;2023-10-13T14:26:20;16.15;;;4.85;;
69878;SDS011;57161;43.136;24.706;2023-10-13T14:28:49;15.88;;;4.55;;
69878;SDS011;57161;43.136;24.706;2023-10-13T14:31:19;12.95;;;4.88;;
69878;SDS011;57161;43.136;24.706;2023-10-13T14:33:46;12.73;;;5.22;;
69878;SDS011;57161;43.136;24.706;2023-10-13T14:36:12;11.30;;;4.85;;
69878;SDS011;57161;43.136;24.706;2023-10-13T14:38:38;12.13;;;5.03;;
69878;SDS011;57161;43.136;24.706;2023-10-13T14:41:05;11.20;;;5.18;;
69878;SDS011;57161;43.136;24.706;2023-10-13T14:43:30;14.45;;;4.88;;
69878;SDS011;57161;43.136;24.706;2023-10-13T14:45:56;16.10;;;5.10;;
69878;SDS011;57161;43.136;24.706;2023-10-13T14:48:21;10.75;;;4.90;;
69878;SDS011;57161;43.136;24.706;2023-10-13T14:50:50;18.15;;;4.97;;
69878;SDS011;57161;43.136;24.706;2023-10-13T14:53:15;16.48;;;5.40;;
69878;SDS011;57161;43.136;24.706;2023-10-13T14:55:44;20.90;;;5.30;;
69878;SDS011;57161;43.136;24.706;2023-10-13T14:58:10;12.32;;;4.75;;
69878;SDS011;57161;43.136;24.706;2023-10-13T15:00:41;9.40;;;4.50;;
69878;SDS011;57161;43.136;24.706;2023-10-13T15:03:10;14.50;;;5.00;;
69878;SDS011;57161;43.136;24.706;2023-10-13T15:05:40;16.38;;;5.03;;
69878;SDS011;57161;43.136;24.706;2023-10-13T15:08:08;17.10;;;5.60;;
69878;SDS011;57161;43.136;24.706;2023-10-13T15:10:37;22.45;;;5.78;;
69878;SDS011;57161;43.136;24.706;2023-10-13T15:13:03;18.83;;;5.50;;
69878;SDS011;57161;43.136;24.706;2023-10-13T15:15:30;15.85;;;5.38;;
69878;SDS011;57161;43.136;24.706;2023-10-13T15:17:57;18.40;;;6.22;;
69878;SDS011;57161;43.136;24.706;2023-10-13T15:20:23;17.92;;;6.47;;
69878;SDS011;57161;43.136;24.706;2023-10-13T15:22:49;21.27;;;7.13;;
69878;SDS011;57161;43.136;24.706;2023-10-13T15:25:14;15.65;;;7.25;;
69878;SDS011;57161;43.136;24.706;2023-10-13T15:27:53;19.75;;;7.50;;
69878;SDS011;57161;43.136;24.706;2023-10-13T15:30:22;28.83;;;7.47;;